CST,Max TemperatureF,Mean TemperatureF,Min TemperatureF,Max Dew PointF,MeanDew PointF,Min DewpointF,Max Humidity, Mean Humidity, Min Humidity, Max Sea Level PressureIn, Mean Sea Level PressureIn, Min Sea Level PressureIn, Max VisibilityMiles, Mean VisibilityMiles, Min VisibilityMiles, Max Wind SpeedMPH, Mean Wind SpeedMPH, Max Gust SpeedMPH,PrecipitationIn, CloudCover, Events, WindDirDegrees
2011-11-1,83,69,54,61,56,50,86,62,37,30.14,30.08,30.03,10,10,10,20,8,26,0.00,2,,131
2011-11-2,87,75,62,68,64,58,93,69,45,30.07,30.00,29.95,10,10,10,25,11,37,0.00,2,,147
2011-11-3,70,62,53,64,37,25,84,52,20,30.37,30.24,30.08,10,10,10,37,17,45,0.14,4,Rain,358
2011-11-4,68,58,47,35,29,23,53,36,19,30.27,30.19,30.10,10,10,10,14,8,18,0.00,0,,60
2011-11-5,77,66,54,66,58,39,83,69,55,30.08,29.96,29.86,10,10,10,26,13,31,T,5,Rain,110
2011-11-6,83,79,75,70,68,67,82,73,63,30.00,29.95,29.89,10,10,10,28,17,32,0.00,7,,145
2011-11-7,88,82,75,69,68,64,82,66,50,30.01,29.95,29.88,10,10,10,33,19,39,0.00,4,,154
2011-11-8,85,78,71,70,66,50,90,73,55,30.05,29.91,29.85,10,10,10,23,12,28,0.00,3,,158
2011-11-9,74,64,54,48,41,36,66,49,32,30.38,30.21,30.06,10,10,10,28,18,33,0.02,4,Rain-Thunderstorm,359
2011-11-10,69,57,44,45,35,27,71,46,21,30.49,30.39,30.33,10,10,10,20,10,24,0.12,1,Rain,354
2011-11-11,74,53,32,44,35,27,82,53,23,30.33,30.23,30.11,10,10,10,21,7,24,0.00,0,,166
2011-11-12,82,67,52,64,57,45,87,66,45,30.09,30.00,29.94,10,10,10,29,14,35,0.00,2,,162
2011-11-13,88,76,63,69,66,61,93,72,50,29.97,29.91,29.83,10,10,5,26,15,33,0.00,2,,170
2011-11-14,86,78,69,72,69,67,90,76,61,29.91,29.81,29.73,10,10,4,30,16,40,T,4,Rain,153
2011-11-15,81,72,62,72,64,53,93,69,45,29.80,29.76,29.70,10,10,7,33,10,41,0.06,4,Rain-Thunderstorm,232
2011-11-16,92,75,57,58,48,39,84,50,16,30.12,29.91,29.79,10,10,10,28,12,33,0.00,0,,285
2011-11-17,72,64,56,53,46,41,72,55,38,30.38,30.28,30.15,10,10,10,30,15,36,0.00,3,,48
2011-11-18,80,68,55,65,57,48,83,64,45,30.23,30.08,29.98,10,10,10,25,13,30,0.00,3,,103
2011-11-19,88,79,70,72,70,65,90,75,59,29.96,29.92,29.84,10,10,10,36,20,44,T,4,,161
2011-11-20,88,82,75,74,72,68,88,72,55,30.06,30.00,29.94,10,10,9,31,21,38,0.00,5,,154
2011-11-21,84,80,76,73,72,71,94,82,69,30.05,29.97,29.87,10,10,7,31,21,38,0.00,6,,152
2011-11-22,86,72,58,73,64,48,88,60,31,30.19,29.97,29.86,10,10,6,25,13,31,0.00,4,,53
2011-11-23,75,64,52,54,50,46,86,65,43,30.31,30.23,30.19,10,10,10,23,9,29,0.00,1,,55
2011-11-24,76,62,48,61,55,43,96,75,54,30.28,30.21,30.13,10,10,5,16,8,20,0.00,1,,57
2011-11-25,85,71,57,65,59,53,93,67,40,30.12,29.98,29.86,10,10,10,25,13,33,0.00,3,,133
2011-11-26,81,69,56,68,57,37,90,63,36,30.27,29.98,29.86,10,10,10,37,15,45,T,6,,301
2011-11-27,63,49,34,34,19,6,52,32,12,30.40,30.32,30.27,10,10,10,36,19,47,0.00,0,,321
2011-11-28,75,51,27,30,16,5,50,29,8,30.29,30.16,30.05,10,10,10,13,6,18,0.00,0,,230
2011-11-29,77,58,38,48,32,17,59,38,17,30.22,30.13,30.06,10,10,10,20,8,25,0.00,0,,84
2011-11-30,70,56,42,47,37,31,83,55,26,30.27,30.18,30.09,10,10,10,16,8,18,0.00,0,,57